Saint Martin Island, Guadeloupe

6:48 AM AST on May 24, 2017 (GMT -0400)
Dutch Cul-De-Sac | | Change Station

Elev 72 ft 18.05 °N, 63.06 °W | Updated 11 seconds ago

Clear
Clear
81.0 °F
Feels Like 86 °F
N
4.9
Wind Variable Wind from NE
Gusts 4.9 mph

Today
High -- | Low -- °F
--% Chance of Precip.
Yesterday
High -- | Low -- °F
Precip. -- in
Pressure 30.04 in
Visibility 6.2 miles
Clouds Few 2100 ft
Heat Index 86 °F
Dew Point 73 °F
Humidity 77%
Rainfall 0.00 in
Snow Depth Not available.
5:36 AM 6:41 PM
Waning Crescent, 3% visible
METAR TNCM 241000Z 08009KT 9999 FEW021 27/23 Q1017 A3004 NOSIG RMK MIN VIS 12KM N LGT HZ ALQDS
Pressure 30.04 in
Visibility 6.2 miles
Clouds Few 2100 ft
Heat Index 86 °F
Dew Point 73 °F
Humidity 77%
Rainfall 0.00 in
Snow Depth Not available.
5:36 AM 6:41 PM
Waning Crescent, 3% visible
METAR TNCM 241000Z 08009KT 9999 FEW021 27/23 Q1017 A3004 NOSIG RMK MIN VIS 12KM N LGT HZ ALQDS

Get Severe Weather Alerts

Thanks for signing up!

Be on the lookout for a verification email in your inbox.

You'll start receiving the daily forecast at 6 AM.

×

10-Day Weather Forecast

No radar image for this location.
×

Almanac

Astronomy

May. 24, 2017 Rise Set
Actual Time
Civil Twilight
Nautical Twilight
Astronomical Twilight
Moon
Length of Visible Light
Length of Day
Tomorrow will be .
, % of the Moon is Illuminated

Today's Extremes

Country Highs Country Lows

Community

WunderPhotos

Category 6

Welcome to Category 6. This is the collective home for Weather Underground's featured writeups by Dr. Jeff Masters (right), Bob Henson (left), Chris Burt, and other regular contributors.

Nearby

Air Quality

  Air Quality AQ Index Pollutant
Not available.

Snow Depth

Station Depth Elevation

Earthquake Activity

City Distance Mag. Time & Date
Minimum magnitude displayed is 2.5.

Coastal Water Temperatures

Place Temperature

Stations

Nearby Weather Stations

Station Location Temp. Windchill Dew Point Humidity Wind Precip. Elev Updated Type